Time;durP1;ratioP1;P1;durP2;ratioP2;P2;SDS_P1;SDS_P2;PMS_P1;PMS_P2;Temp;Humidity;BMP_temperature;BMP_pressure;BME280_temperature;BME280_humidity;BME280_pressure;Samples;Min_cycle;Max_cycle;Signal;HPM_P1;HPM_P2
2023/07/20 00:01:46;;;;;;;3.08;2.40;;;16.30;99.90;;;;;;5111952;28;20076;-56
2023/07/20 00:04:13;;;;;;;2.78;2.38;;;16.20;99.90;;;;;;5111858;28;20036;-57
2023/07/20 00:06:40;;;;;;;2.30;2.10;;;16.20;99.90;;;;;;5112252;28;20039;-56
2023/07/20 00:09:08;;;;;;;3.25;2.42;;;16.20;99.90;;;;;;5112081;28;20043;-56
2023/07/20 00:11:37;;;;;;;4.53;2.20;;;16.20;99.90;;;;;;5111881;28;20046;-56
2023/07/20 00:14:04;;;;;;;2.75;1.80;;;16.20;99.90;;;;;;5111915;28;20420;-57
2023/07/20 00:16:30;;;;;;;2.83;2.10;;;16.20;99.90;;;;;;5111439;28;20074;-57
2023/07/20 00:18:55;;;;;;;3.03;1.70;;;16.20;99.90;;;;;;5111934;28;20478;-57
2023/07/20 00:21:21;;;;;;;3.63;2.13;;;16.10;99.90;;;;;;5105936;28;20043;-56
2023/07/20 00:23:47;;;;;;;3.67;2.20;;;16.10;99.90;;;;;;5115662;28;20089;-57
2023/07/20 00:26:12;;;;;;;5.07;2.03;;;16.10;99.90;;;;;;5108984;28;20042;-56
2023/07/20 00:28:38;;;;;;;4.55;2.40;;;16.00;99.90;;;;;;5115347;28;20031;-57
2023/07/20 00:31:04;;;;;;;3.78;2.50;;;16.00;99.90;;;;;;5114138;28;20375;-57
2023/07/20 00:33:30;;;;;;;4.90;2.30;;;16.00;99.90;;;;;;5106305;28;20490;-57
2023/07/20 00:35:56;;;;;;;3.95;2.13;;;16.00;99.90;;;;;;5103626;28;20047;-57
2023/07/20 00:38:21;;;;;;;3.67;2.03;;;16.00;99.90;;;;;;5094846;28;20386;-57
2023/07/20 00:40:49;;;;;;;5.75;2.55;;;15.90;99.90;;;;;;5094981;28;20539;-57
2023/07/20 00:43:15;;;;;;;3.03;2.45;;;15.90;99.90;;;;;;5094704;28;20489;-57
2023/07/20 00:45:41;;;;;;;2.60;2.10;;;15.90;99.90;;;;;;5094582;28;20036;-57
2023/07/20 00:48:08;;;;;;;2.55;1.80;;;16.00;99.90;;;;;;5093432;28;20040;-57
2023/07/20 00:50:34;;;;;;;3.63;2.60;;;16.00;99.90;;;;;;5094412;28;20119;-57
2023/07/20 00:53:03;;;;;;;2.75;2.20;;;16.00;99.90;;;;;;5094787;28;20111;-56
2023/07/20 00:55:29;;;;;;;;;;;16.00;99.90;;;;;;5094830;28;20040;-57
2023/07/20 00:57:54;;;;;;;2.75;2.45;;;15.90;99.90;;;;;;5094458;28;19999;-57
2023/07/20 01:00:20;;;;;;;2.97;2.58;;;15.80;99.90;;;;;;5094584;28;20419;-56
2023/07/20 01:02:46;;;;;;;3.20;2.33;;;15.80;99.90;;;;;;5092937;28;20051;-58
2023/07/20 01:05:16;;;;;;;3.22;2.78;;;15.80;99.90;;;;;;5094298;28;20486;-56
2023/07/20 01:07:52;;;;;;;6.82;2.88;;;15.70;99.90;;;;;;5094107;28;20122;-57
2023/07/20 01:10:23;;;;;;;2.85;2.65;;;15.60;99.90;;;;;;5094220;28;20584;-56
2023/07/20 01:12:52;;;;;;;2.45;2.20;;;15.70;99.90;;;;;;5094222;28;20044;-56
2023/07/20 01:15:18;;;;;;;;;;;15.60;99.90;;;;;;5094568;28;20063;-56
2023/07/20 01:17:44;;;;;;;4.57;2.60;;;15.70;99.90;;;;;;5094063;28;19924;-57
2023/07/20 01:20:16;;;;;;;2.83;2.60;;;15.60;99.90;;;;;;5094129;28;20086;-57
2023/07/20 01:23:27;;;;;;;4.47;2.47;;;15.60;99.90;;;;;;5088150;28;20043;-57
2023/07/20 01:26:02;;;;;;;4.00;2.65;;;15.60;99.90;;;;;;5093997;28;20082;-57
2023/07/20 01:28:30;;;;;;;5.13;2.78;;;15.50;99.90;;;;;;5093673;28;20485;-57
2023/07/20 01:31:17;;;;;;;2.85;2.50;;;15.50;99.90;;;;;;5093843;28;20071;-57
2023/07/20 01:33:45;;;;;;;3.95;2.60;;;15.50;99.90;;;;;;5079648;28;20043;-57
2023/07/20 01:36:11;;;;;;;4.47;3.20;;;15.50;99.90;;;;;;5093892;28;20063;-56
2023/07/20 01:38:37;;;;;;;2.75;2.55;;;15.40;99.90;;;;;;5092615;28;20040;-56
2023/07/20 01:41:03;;;;;;;3.45;2.80;;;15.40;99.90;;;;;;5094018;28;20081;-56
2023/07/20 01:43:29;;;;;;;2.90;2.60;;;15.30;99.90;;;;;;5093328;28;20447;-57
2023/07/20 01:45:55;;;;;;;4.15;2.67;;;15.30;99.90;;;;;;5098340;28;20115;-57
2023/07/20 01:48:20;;;;;;;3.90;2.97;;;15.30;99.90;;;;;;5114107;28;20036;-56
2023/07/20 01:50:46;;;;;;;4.70;2.88;;;15.30;99.90;;;;;;5112820;28;20039;-57
2023/07/20 01:53:12;;;;;;;4.20;2.92;;;15.30;99.90;;;;;;5113669;28;20042;-56
2023/07/20 01:55:38;;;;;;;2.97;2.75;;;15.30;99.90;;;;;;5111654;28;20055;-56
2023/07/20 01:58:03;;;;;;;4.53;2.60;;;15.30;99.90;;;;;;5112576;28;20037;-56
2023/07/20 02:00:29;;;;;;;3.15;2.85;;;15.30;99.90;;;;;;5113565;28;20032;-56
2023/07/20 02:02:55;;;;;;;4.80;2.63;;;15.20;99.90;;;;;;5113191;28;20501;-57
2023/07/20 02:05:20;;;;;;;4.43;3.00;;;15.10;99.90;;;;;;5113556;28;20039;-57
2023/07/20 02:07:46;;;;;;;3.38;3.08;;;15.20;99.90;;;;;;5113650;28;20047;-56
2023/07/20 02:10:12;;;;;;;6.10;3.33;;;15.00;99.90;;;;;;5113358;28;20031;-57
2023/07/20 02:12:37;;;;;;;4.80;3.25;;;15.00;99.90;;;;;;5113294;28;20527;-57
2023/07/20 02:15:03;;;;;;;3.53;2.83;;;14.90;99.90;;;;;;5113191;28;20520;-56
2023/07/20 02:17:29;;;;;;;3.70;3.25;;;14.90;99.90;;;;;;5113416;28;20134;-57
2023/07/20 02:19:57;;;;;;;5.65;3.08;;;14.90;99.90;;;;;;5111860;28;20524;-57
2023/07/20 02:22:23;;;;;;;4.28;3.13;;;14.90;99.90;;;;;;5101008;28;20492;-57
2023/07/20 02:24:50;;;;;;;3.53;3.10;;;14.90;99.90;;;;;;5113075;28;20036;-57
2023/07/20 02:27:16;;;;;;;4.22;3.15;;;14.90;99.90;;;;;;5089963;28;20463;-57
2023/07/20 02:29:42;;;;;;;4.15;3.00;;;14.60;99.90;;;;;;5113091;28;20043;-56
2023/07/20 02:32:09;;;;;;;7.47;3.25;;;14.70;99.90;;;;;;5113296;27;20100;-57
2023/07/20 02:34:35;;;;;;;5.47;3.30;;;14.60;99.90;;;;;;5112677;28;20039;-56
2023/07/20 02:37:01;;;;;;;4.00;3.20;;;14.40;99.90;;;;;;5113124;27;20097;-56
2023/07/20 02:39:28;;;;;;;4.97;3.25;;;14.40;99.90;;;;;;5112762;28;20043;-57
2023/07/20 02:41:53;;;;;;;5.22;3.30;;;14.30;99.90;;;;;;5109162;28;20039;-57
2023/07/20 02:44:19;;;;;;;5.18;3.55;;;14.30;99.90;;;;;;5092073;28;20048;-57
2023/07/20 02:46:45;;;;;;;5.78;3.30;;;14.10;99.90;;;;;;5090963;28;20028;-57
2023/07/20 02:49:11;;;;;;;5.45;3.65;;;14.20;99.90;;;;;;5092402;28;20040;-57
2023/07/20 02:51:37;;;;;;;4.95;2.78;;;14.10;99.90;;;;;;5092270;28;20153;-57
2023/07/20 02:54:03;;;;;;;3.53;3.15;;;14.10;99.90;;;;;;5092192;28;20099;-57
2023/07/20 02:56:29;;;;;;;4.72;2.85;;;14.00;99.90;;;;;;5092428;28;20141;-58
2023/07/20 02:58:54;;;;;;;4.10;3.00;;;14.00;99.90;;;;;;5092048;28;20036;-56
2023/07/20 03:01:20;;;;;;;6.97;3.85;;;13.90;99.90;;;;;;5092573;28;20043;-57
2023/07/20 03:03:46;;;;;;;2.92;2.72;;;13.90;99.90;;;;;;5094850;28;20047;-56
2023/07/20 03:06:15;;;;;;;4.18;3.03;;;13.90;99.90;;;;;;5112729;28;20044;-57
2023/07/20 03:08:41;;;;;;;5.15;2.95;;;13.70;99.90;;;;;;5112469;28;20047;-57
2023/07/20 03:11:07;;;;;;;5.63;3.05;;;13.80;99.90;;;;;;5112714;28;20035;-57
2023/07/20 03:13:33;;;;;;;4.93;3.13;;;13.70;99.90;;;;;;5112346;28;20076;-56
2023/07/20 03:15:58;;;;;;;3.50;2.88;;;13.60;99.90;;;;;;5112336;28;20055;-57
2023/07/20 03:18:24;;;;;;;5.95;3.05;;;13.60;99.90;;;;;;5112347;28;20039;-56
2023/07/20 03:20:50;;;;;;;5.13;3.15;;;13.60;99.90;;;;;;5112142;28;20043;-56
2023/07/20 03:23:16;;;;;;;3.28;2.97;;;13.60;99.90;;;;;;5112512;28;20036;-57
2023/07/20 03:25:42;;;;;;;4.00;2.75;;;13.70;99.90;;;;;;5112002;28;20376;-56
2023/07/20 03:28:07;;;;;;;3.17;2.67;;;13.60;99.90;;;;;;5112190;28;20115;-56
2023/07/20 03:30:34;;;;;;;3.63;2.60;;;13.60;99.90;;;;;;5112233;28;20043;-57
2023/07/20 03:32:59;;;;;;;6.80;3.13;;;13.50;99.90;;;;;;5112279;28;20040;-56
2023/07/20 03:35:25;;;;;;;5.30;2.78;;;13.50;99.90;;;;;;5111949;28;20043;-57
2023/07/20 03:37:51;;;;;;;4.13;2.97;;;13.40;99.90;;;;;;5112227;28;20390;-57
2023/07/20 03:40:16;;;;;;;4.30;3.08;;;13.30;99.90;;;;;;5112101;28;20039;-56
2023/07/20 03:42:42;;;;;;;4.35;2.78;;;13.40;99.90;;;;;;5101890;28;20044;-57
2023/07/20 03:45:08;;;;;;;3.45;2.78;;;13.30;99.90;;;;;;5096799;28;20036;-57
2023/07/20 03:47:33;;;;;;;4.93;2.50;;;13.30;99.90;;;;;;5112147;28;20083;-57
2023/07/20 03:49:59;;;;;;;3.67;2.50;;;13.30;99.90;;;;;;5112033;28;20040;-57
2023/07/20 03:52:25;;;;;;;3.83;2.90;;;13.30;99.90;;;;;;5112364;28;20024;-56
2023/07/20 03:54:53;;;;;;;5.68;2.60;;;13.30;99.90;;;;;;5112214;28;20036;-57
2023/07/20 03:57:19;;;;;;;3.47;2.55;;;13.40;99.90;;;;;;5113743;28;20078;-57
2023/07/20 03:59:46;;;;;;;2.70;2.50;;;13.40;99.90;;;;;;5116194;28;20027;-57
2023/07/20 04:02:11;;;;;;;4.75;2.60;;;13.30;99.90;;;;;;5115838;28;20132;-56
2023/07/20 04:04:37;;;;;;;4.55;2.70;;;13.30;99.90;;;;;;5115877;28;20521;-55
2023/07/20 04:07:03;;;;;;;2.85;2.40;;;13.40;99.90;;;;;;5115824;28;20035;-56
2023/07/20 04:09:31;;;;;;;5.20;2.92;;;13.40;99.90;;;;;;5115718;28;20388;-56
2023/07/20 04:11:56;;;;;;;4.70;2.85;;;13.30;99.90;;;;;;5115659;28;20104;-56
2023/07/20 04:14:22;;;;;;;8.75;2.55;;;13.40;99.90;;;;;;5115274;28;20405;-56
2023/07/20 04:16:47;;;;;;;2.90;2.58;;;13.40;99.90;;;;;;5115720;28;20083;-56
2023/07/20 04:19:13;;;;;;;2.97;2.65;;;13.30;99.90;;;;;;5115692;28;20074;-55
2023/07/20 04:21:42;;;;;;;4.53;2.63;;;13.20;99.90;;;;;;5115373;28;20454;-56
2023/07/20 04:24:07;;;;;;;3.40;2.67;;;13.30;99.90;;;;;;5115660;28;20047;-55
2023/07/20 04:26:33;;;;;;;3.40;2.55;;;13.20;99.90;;;;;;5104669;28;20036;-56
2023/07/20 04:29:01;;;;;;;5.55;2.55;;;13.20;99.90;;;;;;5111619;28;20035;-56
2023/07/20 04:31:27;;;;;;;2.97;2.33;;;13.20;99.90;;;;;;5115387;28;20077;-56
2023/07/20 04:33:52;;;;;;;3.90;2.78;;;13.20;99.90;;;;;;5115408;28;20036;-56
2023/07/20 04:36:19;;;;;;;2.90;2.42;;;13.30;99.90;;;;;;5115103;28;20035;-56
2023/07/20 04:38:45;;;;;;;4.97;2.53;;;13.30;99.90;;;;;;5115176;28;20035;-56
2023/07/20 04:41:14;;;;;;;3.45;2.38;;;13.30;99.90;;;;;;5115038;28;20032;-57
2023/07/20 04:43:43;;;;;;;;;;;13.30;99.90;;;;;;5097238;28;20529;-57
2023/07/20 04:46:10;;;;;;;3.58;2.28;;;13.40;99.90;;;;;;5107917;28;20387;-57
2023/07/20 04:48:36;;;;;;;4.18;2.40;;;13.60;99.90;;;;;;5113577;28;20481;-57
2023/07/20 04:51:02;;;;;;;4.05;2.30;;;13.60;99.90;;;;;;5114896;28;20032;-57
2023/07/20 04:53:27;;;;;;;4.25;2.55;;;13.80;99.90;;;;;;5114622;28;20481;-57
2023/07/20 04:55:54;;;;;;;4.68;2.47;;;13.80;99.90;;;;;;5114964;28;20088;-57
2023/07/20 04:58:20;;;;;;;5.47;2.70;;;14.00;99.90;;;;;;5114850;28;20118;-57
2023/07/20 05:00:46;;;;;;;4.43;2.88;;;14.10;99.90;;;;;;5115056;28;20102;-57
2023/07/20 05:03:11;;;;;;;3.90;3.05;;;14.20;99.90;;;;;;5107467;28;20419;-57
2023/07/20 05:05:37;;;;;;;3.72;2.40;;;14.20;99.90;;;;;;5112504;28;20039;-57
2023/07/20 05:08:04;;;;;;;6.68;2.55;;;14.40;99.90;;;;;;5114411;28;20059;-57
2023/07/20 05:10:29;;;;;;;5.05;2.63;;;14.50;99.90;;;;;;5114663;28;20039;-58
2023/07/20 05:12:55;;;;;;;7.45;2.40;;;14.60;99.90;;;;;;5114952;27;20069;-57
2023/07/20 05:15:21;;;;;;;4.63;2.55;;;14.70;99.90;;;;;;5114241;28;20104;-57
2023/07/20 05:17:48;;;;;;;3.40;2.30;;;14.70;99.90;;;;;;5114713;28;20367;-56
2023/07/20 05:20:14;;;;;;;5.13;2.30;;;14.80;99.90;;;;;;5113310;28;20043;-57
2023/07/20 05:22:40;;;;;;;3.10;1.95;;;14.90;99.90;;;;;;5114421;28;20415;-57
2023/07/20 05:25:10;;;;;;;3.78;2.17;;;14.90;99.90;;;;;;5114618;28;20484;-57
2023/07/20 05:27:37;;;;;;;4.20;1.80;;;14.90;99.90;;;;;;5112117;28;20035;-56
2023/07/20 05:30:03;;;;;;;2.92;2.13;;;15.00;99.90;;;;;;5114266;28;20378;-57
2023/07/20 05:32:29;;;;;;;6.45;2.20;;;15.10;99.90;;;;;;5106397;28;20079;-57
2023/07/20 05:34:54;;;;;;;2.80;1.92;;;15.20;99.90;;;;;;5113898;28;20113;-57
2023/07/20 05:37:21;;;;;;;4.88;1.70;;;15.20;99.90;;;;;;5113700;28;20481;-57
2023/07/20 05:39:46;;;;;;;3.92;2.00;;;15.40;99.90;;;;;;5113818;28;20089;-57
2023/07/20 05:42:12;;;;;;;5.00;2.67;;;15.40;99.90;;;;;;5107979;28;20071;-57
2023/07/20 05:44:39;;;;;;;4.45;2.25;;;15.50;99.90;;;;;;5093589;28;20122;-57
2023/07/20 05:47:04;;;;;;;4.32;1.95;;;15.70;99.90;;;;;;5093305;28;20042;-57
2023/07/20 05:49:30;;;;;;;4.40;1.80;;;15.70;99.90;;;;;;5108833;28;20036;-57
2023/07/20 05:51:56;;;;;;;2.92;1.38;;;15.70;99.90;;;;;;5105569;28;20047;-57
2023/07/20 05:54:24;;;;;;;3.15;1.52;;;15.80;99.90;;;;;;5113763;28;20057;-57
2023/07/20 05:56:49;;;;;;;4.20;1.80;;;15.80;99.90;;;;;;5104686;28;20048;-57
2023/07/20 05:59:16;;;;;;;2.03;1.35;;;15.90;99.90;;;;;;5113679;28;20040;-57
2023/07/20 06:01:42;;;;;;;3.22;1.42;;;16.00;99.90;;;;;;5113339;28;20106;-57
2023/07/20 06:04:08;;;;;;;4.50;1.58;;;16.10;99.90;;;;;;5113362;27;20140;-58
2023/07/20 06:06:34;;;;;;;3.55;1.17;;;16.10;99.90;;;;;;5113222;28;20067;-58
2023/07/20 06:09:03;;;;;;;3.95;1.45;;;16.20;99.90;;;;;;5113510;28;20435;-57
2023/07/20 06:11:30;;;;;;;5.72;1.77;;;16.20;99.90;;;;;;5113213;28;20055;-57
2023/07/20 06:13:56;;;;;;;3.00;1.60;;;16.30;99.90;;;;;;5113366;28;20040;-56
2023/07/20 06:16:22;;;;;;;5.97;1.50;;;16.50;99.90;;;;;;5112912;28;20079;-57
2023/07/20 06:18:48;;;;;;;5.28;1.77;;;16.50;99.90;;;;;;5112192;28;20071;-57
2023/07/20 06:21:13;;;;;;;5.43;1.50;;;16.60;99.90;;;;;;5110548;28;20074;-57
2023/07/20 06:23:39;;;;;;;2.78;1.65;;;16.70;99.90;;;;;;5111508;28;20040;-57
2023/07/20 06:26:07;;;;;;;5.57;1.50;;;16.80;99.90;;;;;;5110346;28;20126;-57
2023/07/20 06:28:32;;;;;;;4.50;1.90;;;16.90;99.90;;;;;;5112723;28;20050;-57
2023/07/20 06:31:02;;;;;;;1.92;1.55;;;16.90;99.90;;;;;;5112893;27;20337;-57
2023/07/20 06:33:28;;;;;;;6.00;1.88;;;17.10;99.90;;;;;;5112609;28;20043;-57
2023/07/20 06:35:53;;;;;;;2.38;1.50;;;17.20;99.90;;;;;;5111336;28;20512;-57
2023/07/20 06:38:19;;;;;;;5.38;1.38;;;17.40;99.90;;;;;;5112924;28;20039;-57
2023/07/20 06:40:48;;;;;;;4.68;1.15;;;17.40;99.90;;;;;;5112926;28;20558;-57
2023/07/20 06:43:14;;;;;;;2.78;1.40;;;17.50;99.90;;;;;;5110694;28;20036;-58
2023/07/20 06:45:40;;;;;;;4.57;1.30;;;17.50;99.90;;;;;;5112445;28;20043;-56
2023/07/20 06:48:06;;;;;;;4.05;1.48;;;17.70;99.90;;;;;;5112593;28;20035;-57
2023/07/20 06:50:31;;;;;;;3.95;1.45;;;17.70;99.90;;;;;;5111389;28;20088;-57
2023/07/20 06:52:58;;;;;;;4.95;1.15;;;17.70;99.90;;;;;;5112588;28;20114;-57
2023/07/20 06:55:24;;;;;;;6.57;1.50;;;17.70;99.90;;;;;;5112168;28;20492;-57
2023/07/20 06:57:51;;;;;;;2.15;1.20;;;17.60;99.90;;;;;;5111138;28;20114;-58
2023/07/20 07:00:16;;;;;;;5.13;1.98;;;17.60;99.90;;;;;;5112086;28;20107;-57
2023/07/20 07:02:42;;;;;;;2.28;1.15;;;17.70;99.90;;;;;;5112148;28;20141;-57
2023/07/20 07:05:08;;;;;;;3.58;1.10;;;17.80;99.90;;;;;;5112339;28;20066;-57
2023/07/20 07:07:34;;;;;;;3.67;1.33;;;18.00;99.90;;;;;;5128230;27;20500;-57
2023/07/20 07:10:00;;;;;;;3.88;1.50;;;18.20;99.90;;;;;;5112075;28;20044;-57
2023/07/20 07:12:26;;;;;;;7.38;1.55;;;18.40;99.90;;;;;;5112090;28;20047;-57
2023/07/20 07:14:52;;;;;;;3.15;1.90;;;18.40;99.90;;;;;;5112076;28;20040;-57
2023/07/20 07:17:18;;;;;;;3.55;1.52;;;18.20;99.90;;;;;;5111876;28;20055;-57
2023/07/20 07:19:44;;;;;;;4.18;2.15;;;18.20;99.90;;;;;;5112156;28;20090;-58
2023/07/20 07:22:10;;;;;;;4.50;1.80;;;18.40;99.90;;;;;;5111768;28;20040;-57
2023/07/20 07:24:36;;;;;;;6.88;1.90;;;18.40;99.90;;;;;;5112103;28;20040;-57
2023/07/20 07:27:01;;;;;;;3.70;1.80;;;18.60;99.90;;;;;;5111924;28;20507;-57
2023/07/20 07:29:27;;;;;;;5.25;1.98;;;18.70;99.90;;;;;;5111775;28;20485;-58
2023/07/20 07:31:53;;;;;;;6.55;2.63;;;19.00;99.90;;;;;;5114718;28;20040;-58
2023/07/20 07:34:18;;;;;;;3.13;1.52;;;18.90;99.90;;;;;;5116304;28;20054;-57
2023/07/20 07:36:45;;;;;;;4.80;1.58;;;18.70;99.90;;;;;;5116198;28;20061;-58
2023/07/20 07:39:10;;;;;;;3.72;1.65;;;18.40;99.90;;;;;;5116054;28;20088;-57
2023/07/20 07:41:36;;;;;;;12.02;2.25;;;18.40;99.90;;;;;;5114824;28;20435;-57
2023/07/20 07:44:02;;;;;;;3.88;2.13;;;18.50;99.90;;;;;;5097865;28;20032;-58
2023/07/20 07:46:27;;;;;;;8.05;2.80;;;18.60;99.90;;;;;;5115783;28;20396;-58
2023/07/20 07:48:53;;;;;;;7.35;2.13;;;18.80;99.90;;;;;;5115790;28;20462;-59
2023/07/20 07:51:19;;;;;;;5.82;1.65;;;18.90;99.90;;;;;;5115785;28;20031;-57
2023/07/20 07:53:46;;;;;;;5.00;1.63;;;19.30;99.90;;;;;;5115810;28;20036;-58
2023/07/20 07:56:12;;;;;;;4.97;1.85;;;19.60;99.90;;;;;;5115539;28;20031;-59
2023/07/20 07:58:38;;;;;;;4.57;1.60;;;19.80;99.90;;;;;;5115847;28;20044;-58
2023/07/20 08:01:04;;;;;;;5.00;1.85;;;19.90;99.90;;;;;;5115500;28;20074;-58
2023/07/20 08:03:29;;;;;;;3.53;1.23;;;19.80;99.90;;;;;;5115519;28;20119;-58
2023/07/20 08:05:55;;;;;;;5.43;1.85;;;19.90;99.90;;;;;;5115486;28;20122;-58
2023/07/20 08:08:22;;;;;;;9.35;1.73;;;20.10;99.90;;;;;;5115602;28;20065;-58
2023/07/20 08:10:47;;;;;;;5.03;1.85;;;19.80;99.90;;;;;;5095560;28;20040;-58
2023/07/20 08:13:13;;;;;;;3.03;1.40;;;19.60;99.90;;;;;;5089817;28;20036;-58
2023/07/20 08:15:39;;;;;;;6.40;1.63;;;19.60;99.90;;;;;;5114385;28;20069;-58
2023/07/20 08:18:05;;;;;;;3.28;1.30;;;20.00;99.90;;;;;;5103789;28;20039;-58
2023/07/20 08:20:32;;;;;;;4.22;1.02;;;20.30;99.90;;;;;;5106486;28;20088;-59
2023/07/20 08:22:59;;;;;;;4.53;1.38;;;20.50;99.90;;;;;;5115331;28;20829;-59
2023/07/20 08:25:25;;;;;;;2.63;1.00;;;20.80;99.90;;;;;;5102386;27;20040;-58
2023/07/20 08:27:51;;;;;;;3.65;0.98;;;20.70;99.90;;;;;;5107606;28;20068;-59
2023/07/20 08:30:17;;;;;;;3.17;1.13;;;20.60;99.90;;;;;;5110480;28;20114;-58
2023/07/20 08:32:42;;;;;;;3.92;0.82;;;20.80;99.90;;;;;;5110633;27;20479;-58
2023/07/20 08:35:08;;;;;;;3.83;0.98;;;20.80;99.90;;;;;;5104300;28;20070;-59
2023/07/20 08:37:34;;;;;;;4.28;1.02;;;21.10;99.90;;;;;;5115065;28;20032;-59
2023/07/20 08:40:00;;;;;;;2.90;1.40;;;20.70;99.90;;;;;;5115152;28;20039;-59
2023/07/20 08:42:27;;;;;;;1.98;1.00;;;20.70;99.90;;;;;;5105470;28;20028;-58
2023/07/20 08:44:54;;;;;;;4.32;0.75;;;21.00;99.90;;;;;;5104282;28;20080;-59
2023/07/20 08:47:22;;;;;;;1.65;0.80;;;21.30;99.90;;;;;;5108187;28;20552;-59
2023/07/20 08:49:50;;;;;;;52.83;7.65;;;21.10;99.90;;;;;;5095798;28;20048;-59
2023/07/20 08:52:16;;;;;;;;;;;20.90;99.90;;;;;;5111830;28;20393;-59
2023/07/20 08:54:41;;;;;;;10.65;1.38;;;20.70;99.90;;;;;;5114587;28;19927;-58
2023/07/20 08:57:08;;;;;;;8.38;1.67;;;20.40;99.90;;;;;;5114676;28;20042;-59
2023/07/20 08:59:36;;;;;;;5.30;0.95;;;20.10;99.90;;;;;;5113853;28;20038;-59
2023/07/20 09:02:04;;;;;;;8.00;1.93;;;20.10;99.90;;;;;;5115007;28;20036;-63
2023/07/20 09:04:30;;;;;;;2.53;0.77;;;20.80;99.90;;;;;;5114988;27;20074;-62
2023/07/20 09:06:57;;;;;;;2.63;1.30;;;21.50;99.90;;;;;;5114982;28;20787;-61
2023/07/20 09:09:22;;;;;;;6.85;0.90;;;21.80;99.90;;;;;;5113325;28;20038;-61
2023/07/20 09:11:51;;;;;;;3.58;0.70;;;22.10;99.90;;;;;;5106654;28;20036;-62
2023/07/20 09:14:17;;;;;;;;;;;22.60;99.90;;;;;;5114980;28;20040;-62
2023/07/20 09:16:54;;;;;;;1.80;0.77;;;23.20;99.90;;;;;;5114238;28;19927;-61
2023/07/20 09:19:20;;;;;;;5.60;1.05;;;24.00;99.90;;;;;;5113618;28;20052;-60
2023/07/20 09:21:50;;;;;;;8.38;1.10;;;24.70;99.90;;;;;;5114390;28;20040;-60
2023/07/20 09:24:18;;;;;;;54.95;6.22;;;25.40;99.90;;;;;;5114132;28;20478;-59
2023/07/20 09:26:45;;;;;;;2.20;0.88;;;25.40;99.90;;;;;;5114441;28;20450;-60
2023/07/20 09:29:11;;;;;;;10.35;1.02;;;25.80;99.10;;;;;;5113959;28;20497;-60
2023/07/20 09:31:38;;;;;;;18.80;2.50;;;25.50;99.80;;;;;;5113875;28;20485;-60
2023/07/20 09:34:04;;;;;;;2.58;0.73;;;26.30;99.90;;;;;;5114019;27;20047;-60
2023/07/20 09:36:36;;;;;;;17.50;3.92;;;26.50;98.80;;;;;;5113710;28;20054;-60
2023/07/20 09:39:03;;;;;;;18.48;2.30;;;26.90;98.50;;;;;;5080311;27;20355;-61
2023/07/20 09:41:29;;;;;;;4.82;1.15;;;27.20;97.90;;;;;;5083846;28;20042;-60
2023/07/20 09:43:55;;;;;;;2.47;0.70;;;27.70;98.10;;;;;;5079308;28;20044;-60
2023/07/20 09:46:21;;;;;;;2.30;0.73;;;26.90;98.20;;;;;;5093297;28;20071;-57
2023/07/20 09:48:56;;;;;;;3.03;0.90;;;25.50;97.50;;;;;;5093220;28;20043;-58
2023/07/20 09:51:24;;;;;;;3.78;0.93;;;24.80;98.40;;;;;;5093456;28;20040;-57
2023/07/20 09:53:52;;;;;;;3.15;0.57;;;24.50;99.30;;;;;;5094133;28;20036;-57
2023/07/20 09:56:23;;;;;;;6.28;0.98;;;24.20;97.80;;;;;;5112979;28;20045;-57
2023/07/20 09:58:49;;;;;;;2.58;0.80;;;25.00;98.50;;;;;;5106159;28;20097;-57
2023/07/20 10:01:20;;;;;;;2.30;0.73;;;24.40;98.80;;;;;;5098744;27;20520;-57
2023/07/20 10:03:47;;;;;;;14.65;2.95;;;23.60;99.00;;;;;;5102023;28;20080;-59
2023/07/20 10:06:20;;;;;;;42.05;5.10;;;22.90;99.60;;;;;;5087139;28;20680;-59
2023/07/20 10:08:47;;;;;;;9.10;1.98;;;22.80;99.90;;;;;;5107384;28;20116;-59
2023/07/20 10:11:15;;;;;;;7.60;1.48;;;22.90;99.90;;;;;;5101617;28;20482;-59
2023/07/20 10:13:43;;;;;;;3.35;0.60;;;23.50;99.90;;;;;;5098254;28;20039;-59
2023/07/20 10:16:20;;;;;;;2.10;0.75;;;25.40;99.80;;;;;;5091283;28;20052;-59
2023/07/20 10:18:59;;;;;;;3.60;0.50;;;25.90;98.90;;;;;;5101103;28;20489;-59
2023/07/20 10:21:26;;;;;;;1.73;0.60;;;26.40;98.00;;;;;;5095813;28;20032;-59
2023/07/20 10:23:51;;;;;;;1.98;0.75;;;25.10;98.20;;;;;;5099461;28;20036;-59
2023/07/20 10:26:17;;;;;;;6.40;1.10;;;24.60;99.20;;;;;;5107651;28;20045;-59
2023/07/20 10:28:43;;;;;;;4.68;1.30;;;24.10;99.40;;;;;;5099170;28;20135;-59
2023/07/20 10:31:11;;;;;;;4.43;1.10;;;24.50;99.80;;;;;;5113094;28;20118;-59
2023/07/20 10:33:38;;;;;;;3.83;0.80;;;25.00;99.40;;;;;;5111871;28;20039;-59
2023/07/20 10:36:05;;;;;;;2.92;0.80;;;25.40;99.00;;;;;;5109280;28;20088;-59
2023/07/20 10:38:46;;;;;;;21.95;3.08;;;25.20;98.20;;;;;;5111404;28;20492;-59
2023/07/20 10:41:20;;;;;;;2.08;1.02;;;26.00;97.40;;;;;;5101971;28;20044;-59
2023/07/20 10:43:46;;;;;;;2.03;0.75;;;26.70;97.20;;;;;;5088487;28;20499;-57
2023/07/20 10:46:13;;;;;;;3.03;1.10;;;26.60;97.40;;;;;;5111353;28;20359;-58
2023/07/20 10:49:04;;;;;;;4.75;0.80;;;25.60;97.80;;;;;;5112695;28;20043;-58
2023/07/20 10:51:38;;;;;;;2.35;0.80;;;24.90;98.50;;;;;;5102319;28;20439;-58
2023/07/20 10:54:08;;;;;;;4.50;1.15;;;24.50;99.10;;;;;;5112466;28;20046;-58
2023/07/20 10:56:34;;;;;;;9.88;1.30;;;24.90;99.00;;;;;;5096716;28;20040;-58
2023/07/20 10:59:00;;;;;;;3.85;0.90;;;24.90;99.10;;;;;;5111647;28;20047;-58
2023/07/20 11:01:31;;;;;;;2.53;0.90;;;24.60;99.20;;;;;;5112572;28;20050;-58
2023/07/20 11:04:00;;;;;;;4.75;0.85;;;24.60;98.50;;;;;;5103111;28;20067;-59
2023/07/20 11:06:25;;;;;;;2.08;0.80;;;24.90;98.90;;;;;;5112144;28;20172;-58
2023/07/20 11:09:11;;;;;;;2.70;1.50;;;24.60;98.70;;;;;;5112659;28;20876;-58
2023/07/20 11:11:41;;;;;;;23.67;2.22;;;25.70;97.70;;;;;;5112478;28;20047;-58
2023/07/20 11:14:26;;;;;;;5.28;0.93;;;26.30;98.40;;;;;;5112712;28;20079;-58
2023/07/20 11:16:53;;;;;;;3.92;0.93;;;24.90;98.70;;;;;;5100414;28;20044;-58
2023/07/20 11:19:25;;;;;;;3.42;1.13;;;24.50;99.20;;;;;;5105003;28;20040;-58
2023/07/20 11:21:53;;;;;;;3.65;1.20;;;25.50;98.30;;;;;;5094672;28;20067;-61
2023/07/20 11:24:19;;;;;;;2.80;0.70;;;24.80;99.20;;;;;;5083020;28;20029;-60
2023/07/20 11:26:53;;;;;;;4.10;0.80;;;24.30;98.50;;;;;;5089875;28;20058;-61
2023/07/20 11:29:22;;;;;;;4.97;0.95;;;23.70;99.40;;;;;;5073369;28;20059;-57
2023/07/20 11:31:48;;;;;;;3.10;0.90;;;23.70;99.80;;;;;;5083836;28;20040;-58
2023/07/20 11:34:16;;;;;;;1.70;0.98;;;24.20;99.00;;;;;;5091178;28;20044;-57
2023/07/20 11:36:43;;;;;;;;;;;24.60;98.80;;;;;;5090911;28;20109;-58
2023/07/20 11:39:10;;;;;;;2.03;0.80;;;24.90;97.90;;;;;;5091303;28;20389;-58
2023/07/20 11:41:36;;;;;;;18.60;4.88;;;24.90;99.00;;;;;;5091294;28;20352;-57
2023/07/20 11:44:02;;;;;;;5.47;1.30;;;24.60;98.80;;;;;;5103886;28;20044;-58
2023/07/20 11:46:29;;;;;;;3.55;0.80;;;24.10;99.50;;;;;;5091598;28;20044;-58
2023/07/20 11:49:02;;;;;;;1.20;0.63;;;24.00;99.50;;;;;;5087628;28;20075;-59
2023/07/20 11:51:31;;;;;;;2.53;0.90;;;23.90;99.60;;;;;;5087309;28;20044;-57
2023/07/20 11:53:57;;;;;;;2.83;0.93;;;24.10;98.70;;;;;;5088454;28;20072;-58
2023/07/20 11:56:25;;;;;;;14.38;3.65;;;24.00;98.80;;;;;;5082863;28;20059;-58
2023/07/20 11:58:55;;;;;;;2.00;0.77;;;24.20;98.80;;;;;;5076704;28;20474;-58
2023/07/20 12:01:21;;;;;;;7.78;1.33;;;24.20;98.10;;;;;;5082291;28;20373;-58
2023/07/20 12:03:48;;;;;;;4.28;0.93;;;24.00;99.20;;;;;;5090549;28;20031;-59
2023/07/20 12:06:14;;;;;;;4.95;0.98;;;23.80;99.60;;;;;;5088116;28;20038;-59
2023/07/20 12:08:43;;;;;;;5.00;0.93;;;23.50;99.70;;;;;;5108243;28;20473;-58
2023/07/20 12:11:08;;;;;;;4.63;0.90;;;23.20;99.80;;;;;;5099657;28;20069;-58
2023/07/20 12:13:38;;;;;;;2.40;0.70;;;22.80;99.90;;;;;;5087830;28;20044;-58
2023/07/20 12:16:10;;;;;;;1.98;0.70;;;22.60;99.90;;;;;;5089254;28;20840;-56
2023/07/20 12:18:36;;;;;;;3.92;0.70;;;22.60;99.90;;;;;;5098476;28;20028;-54
2023/07/20 12:21:02;;;;;;;2.67;0.80;;;22.50;99.90;;;;;;5108802;28;20474;-54
2023/07/20 12:23:38;;;;;;;4.28;1.15;;;22.50;99.90;;;;;;5112116;28;20070;-54
2023/07/20 12:26:10;;;;;;;3.22;0.90;;;22.60;99.90;;;;;;5116094;28;20040;-53
2023/07/20 12:28:42;;;;;;;1.65;0.70;;;22.40;99.90;;;;;;5115553;28;20076;-54
2023/07/20 12:31:09;;;;;;;3.70;0.70;;;22.30;99.90;;;;;;5115703;28;20835;-53
2023/07/20 12:33:35;;;;;;;4.80;0.73;;;22.10;99.90;;;;;;5115721;28;20046;-55
2023/07/20 12:36:01;;;;;;;7.70;0.95;;;21.80;99.90;;;;;;5097109;28;20051;-51
2023/07/20 12:38:27;;;;;;;5.63;1.10;;;21.50;99.90;;;;;;5115717;28;20040;-56
2023/07/20 12:40:56;;;;;;;2.75;1.00;;;21.10;99.90;;;;;;5115264;28;20169;-54
2023/07/20 12:43:22;;;;;;;5.15;0.90;;;20.80;99.90;;;;;;5099826;28;20139;-55
2023/07/20 12:45:48;;;;;;;7.60;1.67;;;20.50;99.90;;;;;;5094795;28;20119;-55
2023/07/20 12:48:13;;;;;;;3.60;1.30;;;20.00;99.90;;;;;;5094776;28;20102;-55